Time;durP1;ratioP1;P1;durP2;ratioP2;P2;SDS_P1;SDS_P2;PMS_P1;PMS_P2;Temp;Humidity;BMP_temperature;BMP_pressure;BME280_temperature;BME280_humidity;BME280_pressure;Samples;Min_cycle;Max_cycle;Signal;HPM_P1;HPM_P2
2022/09/01 00:01:25;;;;;;;2.95;0.52;;;;;;;;;;5014087;28;20468;-85
2022/09/01 00:03:58;;;;;;;0.77;0.43;;;;;;;;;;5016850;28;20792;-85
2022/09/01 00:06:24;;;;;;;1.83;0.60;;;;;;;;;;5036191;28;20029;-85
2022/09/01 00:08:56;;;;;;;1.50;0.55;;;;;;;;;;5017180;28;20044;-85
2022/09/01 00:11:23;;;;;;;2.92;0.68;;;;;;;;;;5018927;28;20040;-84
2022/09/01 00:13:49;;;;;;;1.50;0.60;;;;;;;;;;5048875;28;20041;-84
2022/09/01 00:16:16;;;;;;;2.30;0.73;;;;;;;;;;5034652;28;20067;-84
2022/09/01 00:18:48;;;;;;;1.83;0.65;;;;;;;;;;5035209;28;20025;-84
2022/09/01 00:21:15;;;;;;;1.83;0.70;;;;;;;;;;5015899;28;20584;-84
2022/09/01 00:23:40;;;;;;;1.05;0.50;;;;;;;;;;5035895;28;20043;-84
2022/09/01 00:26:05;;;;;;;1.60;0.60;;;;;;;;;;5048030;28;20026;-83
2022/09/01 00:28:35;;;;;;;2.50;0.73;;;;;;;;;;5012685;28;20029;-85
2022/09/01 00:31:01;;;;;;;1.27;0.47;;;;;;;;;;5037963;28;20112;-84
2022/09/01 00:33:27;;;;;;;2.70;0.68;;;;;;;;;;5016589;28;20038;-84
2022/09/01 00:35:52;;;;;;;1.02;0.45;;;;;;;;;;5019625;28;20705;-84
2022/09/01 00:38:18;;;;;;;1.88;0.50;;;;;;;;;;5017385;28;20029;-84
2022/09/01 00:40:43;;;;;;;2.10;0.60;;;;;;;;;;5019736;28;20034;-84
2022/09/01 00:43:46;;;;;;;2.03;0.60;;;;;;;;;;5032157;28;20480;-84
2022/09/01 00:46:20;;;;;;;1.00;0.40;;;;;;;;;;5006208;28;20084;-84
2022/09/01 00:48:47;;;;;;;1.08;0.40;;;;;;;;;;5020802;28;20497;-84
2022/09/01 00:51:13;;;;;;;1.83;0.60;;;;;;;;;;5019761;28;20072;-85
2022/09/01 00:53:41;;;;;;;3.90;0.60;;;;;;;;;;5014580;28;20505;-85
2022/09/01 00:56:06;;;;;;;;;;;;;;;;;;5014755;28;20033;-86
2022/09/01 00:58:33;;;;;;;2.03;0.50;;;;;;;;;;5032589;28;19939;-85
2022/09/01 01:00:59;;;;;;;1.83;0.50;;;;;;;;;;5021057;28;20032;-85
2022/09/01 01:03:24;;;;;;;1.45;0.43;;;;;;;;;;5018562;28;20543;-85
2022/09/01 01:05:53;;;;;;;1.90;0.50;;;;;;;;;;5019137;28;20060;-85
2022/09/01 01:08:26;;;;;;;1.63;0.50;;;;;;;;;;5018463;28;20037;-85
2022/09/01 01:10:51;;;;;;;1.25;0.50;;;;;;;;;;5012935;28;20030;-85
2022/09/01 01:13:17;;;;;;;3.35;0.60;;;;;;;;;;5035239;28;20039;-85
2022/09/01 01:15:43;;;;;;;1.30;0.50;;;;;;;;;;5004061;28;20048;-85
2022/09/01 01:18:12;;;;;;;1.50;0.55;;;;;;;;;;5034778;28;20476;-85
2022/09/01 01:23:39;;;;;;;2.08;0.60;;;;;;;;;;5027579;28;20043;-84
2022/09/01 01:26:08;;;;;;;1.77;0.52;;;;;;;;;;5011293;28;20032;-84
2022/09/01 01:28:46;;;;;;;2.92;0.60;;;;;;;;;;5013960;28;20087;-83
2022/09/01 01:31:14;;;;;;;1.40;0.50;;;;;;;;;;5032810;28;20032;-85
2022/09/01 01:33:44;;;;;;;1.80;0.60;;;;;;;;;;5015138;28;20048;-84
2022/09/01 01:36:12;;;;;;;2.20;0.70;;;;;;;;;;5031462;28;20125;-85
2022/09/01 01:38:41;;;;;;;1.40;0.50;;;;;;;;;;5030062;28;20041;-85
2022/09/01 01:41:08;;;;;;;1.75;0.60;;;;;;;;;;5019767;28;20029;-84
2022/09/01 01:43:34;;;;;;;3.67;0.60;;;;;;;;;;5015150;28;20034;-84
2022/09/01 01:46:01;;;;;;;3.25;0.90;;;;;;;;;;5001755;28;20397;-85
2022/09/01 01:48:27;;;;;;;1.80;0.47;;;;;;;;;;5032797;28;20037;-84
2022/09/01 01:50:54;;;;;;;2.72;0.85;;;;;;;;;;5018551;28;21025;-85
2022/09/01 01:53:20;;;;;;;1.80;0.52;;;;;;;;;;5014531;28;20061;-84
2022/09/01 01:55:48;;;;;;;2.25;0.60;;;;;;;;;;5002272;28;20067;-84
2022/09/01 01:58:14;;;;;;;;;;;;;;;;;;5010101;28;20358;-84
2022/09/01 02:00:41;;;;;;;1.83;0.50;;;;;;;;;;5035281;28;19920;-84
2022/09/01 02:03:07;;;;;;;2.05;0.52;;;;;;;;;;5017591;28;20530;-85
2022/09/01 02:05:35;;;;;;;1.20;0.43;;;;;;;;;;5014117;28;20037;-84
2022/09/01 02:08:04;;;;;;;2.22;0.63;;;;;;;;;;5014243;28;20394;-85
2022/09/01 02:10:32;;;;;;;1.30;0.50;;;;;;;;;;5011162;28;20036;-84
2022/09/01 02:13:03;;;;;;;2.53;0.60;;;;;;;;;;5033130;28;20044;-83
2022/09/01 02:15:37;;;;;;;1.73;0.68;;;;;;;;;;5026848;28;20044;-84
2022/09/01 02:18:03;;;;;;;3.03;0.60;;;;;;;;;;5013176;28;20038;-84
2022/09/01 02:20:28;;;;;;;1.83;0.57;;;;;;;;;;5010759;28;20862;-85
2022/09/01 02:22:54;;;;;;;1.85;0.40;;;;;;;;;;5019749;28;20037;-84
2022/09/01 02:25:21;;;;;;;1.83;0.57;;;;;;;;;;5013828;28;20073;-85
2022/09/01 02:27:49;;;;;;;2.17;0.40;;;;;;;;;;5031966;28;20076;-85
2022/09/01 02:30:15;;;;;;;1.60;0.50;;;;;;;;;;5025354;28;20041;-85
2022/09/01 02:32:40;;;;;;;2.17;0.60;;;;;;;;;;5034756;28;20025;-85
2022/09/01 02:35:08;;;;;;;2.42;0.63;;;;;;;;;;5013386;28;20044;-84
2022/09/01 02:37:35;;;;;;;2.70;0.60;;;;;;;;;;5019692;28;20029;-84
2022/09/01 02:40:01;;;;;;;3.60;0.70;;;;;;;;;;5021965;28;20033;-84
2022/09/01 02:42:29;;;;;;;2.10;0.60;;;;;;;;;;5019018;28;20405;-85
2022/09/01 02:44:55;;;;;;;1.15;0.43;;;;;;;;;;5032098;28;20038;-84
2022/09/01 02:47:22;;;;;;;1.85;0.45;;;;;;;;;;5017271;28;20397;-84
2022/09/01 02:49:50;;;;;;;0.77;0.40;;;;;;;;;;5023631;28;20041;-84
2022/09/01 02:52:19;;;;;;;2.15;0.70;;;;;;;;;;5036619;28;20041;-84
2022/09/01 02:54:47;;;;;;;2.22;0.40;;;;;;;;;;5035252;28;20052;-84
2022/09/01 02:57:13;;;;;;;2.67;0.55;;;;;;;;;;5013674;28;20042;-84
2022/09/01 02:59:40;;;;;;;2.13;0.50;;;;;;;;;;5020545;28;20403;-84
2022/09/01 03:02:07;;;;;;;3.05;0.95;;;;;;;;;;5017576;28;20692;-84
2022/09/01 03:04:33;;;;;;;2.38;0.60;;;;;;;;;;5020967;28;20037;-85
2022/09/01 03:07:02;;;;;;;2.00;0.63;;;;;;;;;;5037323;28;20136;-84
2022/09/01 03:09:28;;;;;;;1.90;0.50;;;;;;;;;;5035677;28;20049;-85
2022/09/01 03:11:54;;;;;;;1.67;0.60;;;;;;;;;;5027536;28;20488;-84
2022/09/01 03:14:20;;;;;;;2.15;0.70;;;;;;;;;;5025977;28;20053;-84
2022/09/01 03:16:46;;;;;;;1.95;0.60;;;;;;;;;;5026644;28;20061;-84
2022/09/01 03:19:11;;;;;;;2.58;0.70;;;;;;;;;;5033260;28;20492;-84
2022/09/01 03:21:40;;;;;;;3.13;0.70;;;;;;;;;;5017854;28;20041;-84
2022/09/01 03:24:13;;;;;;;2.95;0.60;;;;;;;;;;5018898;28;20530;-83
2022/09/01 03:26:40;;;;;;;2.95;0.75;;;;;;;;;;5020565;28;20055;-84
2022/09/01 03:29:06;;;;;;;2.45;0.80;;;;;;;;;;5031084;28;20472;-84
2022/09/01 03:31:31;;;;;;;1.88;0.57;;;;;;;;;;5025131;28;20029;-84
2022/09/01 03:33:57;;;;;;;1.58;0.60;;;;;;;;;;5016568;28;20492;-85
2022/09/01 03:36:24;;;;;;;2.53;0.70;;;;;;;;;;5037163;28;20037;-84
2022/09/01 03:38:50;;;;;;;2.28;0.70;;;;;;;;;;5034402;28;20453;-84
2022/09/01 03:41:21;;;;;;;1.45;0.70;;;;;;;;;;5019670;28;20037;-84
2022/09/01 03:43:47;;;;;;;2.83;0.90;;;;;;;;;;5030324;28;20053;-78
2022/09/01 03:46:20;;;;;;;4.50;1.20;;;;;;;;;;5031474;28;20067;-79
2022/09/01 03:48:51;;;;;;;3.17;0.90;;;;;;;;;;5017559;28;20092;-78
2022/09/01 03:51:18;;;;;;;1.92;0.60;;;;;;;;;;5030444;28;20116;-79
2022/09/01 03:53:44;;;;;;;2.53;0.77;;;;;;;;;;5034120;28;20049;-78
2022/09/01 03:56:10;;;;;;;2.97;0.70;;;;;;;;;;5028167;28;20729;-79
2022/09/01 03:58:35;;;;;;;2.67;0.90;;;;;;;;;;5033399;28;20094;-78
2022/09/01 04:01:01;;;;;;;3.05;0.70;;;;;;;;;;5014541;28;20116;-79
2022/09/01 04:03:30;;;;;;;2.67;0.77;;;;;;;;;;5030033;28;20127;-79
2022/09/01 04:05:57;;;;;;;2.90;0.77;;;;;;;;;;5003020;28;20462;-79
2022/09/01 04:08:29;;;;;;;1.85;0.80;;;;;;;;;;5027288;28;20670;-80
2022/09/01 04:10:57;;;;;;;2.50;0.73;;;;;;;;;;5043756;28;20436;-80
2022/09/01 04:13:29;;;;;;;1.98;0.70;;;;;;;;;;5030981;28;20116;-80
2022/09/01 04:15:56;;;;;;;1.90;0.80;;;;;;;;;;5029753;28;20037;-80
2022/09/01 04:18:22;;;;;;;3.38;0.85;;;;;;;;;;5025098;28;20120;-80
2022/09/01 04:20:49;;;;;;;2.33;1.00;;;;;;;;;;5015213;28;20477;-79
2022/09/01 04:23:28;;;;;;;2.97;0.93;;;;;;;;;;5010401;28;20116;-79
2022/09/01 04:26:07;;;;;;;2.88;0.90;;;;;;;;;;5020188;28;20048;-80
2022/09/01 04:28:36;;;;;;;2.25;0.80;;;;;;;;;;5025764;28;20095;-80
2022/09/01 04:31:08;;;;;;;2.22;0.82;;;;;;;;;;5013892;28;20037;-80
2022/09/01 04:33:38;;;;;;;2.40;0.93;;;;;;;;;;5003985;28;20033;-81
2022/09/01 04:36:06;;;;;;;4.88;0.93;;;;;;;;;;5013853;28;20115;-80
2022/09/01 04:38:36;;;;;;;3.58;1.30;;;;;;;;;;5033278;28;20084;-80
2022/09/01 04:41:08;;;;;;;2.95;0.90;;;;;;;;;;5017009;28;20084;-80
2022/09/01 04:43:37;;;;;;;4.82;1.20;;;;;;;;;;5014485;28;20087;-80
2022/09/01 04:46:02;;;;;;;2.42;1.00;;;;;;;;;;5003062;28;20145;-80
2022/09/01 04:48:27;;;;;;;3.78;1.30;;;;;;;;;;5016959;28;20120;-80
2022/09/01 04:50:55;;;;;;;2.60;1.10;;;;;;;;;;5013924;28;20243;-80
2022/09/01 04:53:20;;;;;;;4.45;1.20;;;;;;;;;;5013936;28;20061;-79
2022/09/01 04:55:46;;;;;;;2.53;1.10;;;;;;;;;;5028411;28;20596;-80
2022/09/01 04:58:19;;;;;;;2.13;0.90;;;;;;;;;;5013531;28;20413;-79
2022/09/01 05:00:54;;;;;;;2.78;1.00;;;;;;;;;;5028419;28;20049;-79
2022/09/01 05:03:22;;;;;;;2.90;1.10;;;;;;;;;;5034208;28;20366;-79
2022/09/01 05:05:48;;;;;;;4.38;1.20;;;;;;;;;;5027476;28;20030;-79
2022/09/01 05:08:19;;;;;;;4.32;1.30;;;;;;;;;;5034702;28;20120;-78
2022/09/01 05:10:54;;;;;;;3.45;0.93;;;;;;;;;;5012927;28;20037;-79
2022/09/01 05:13:21;;;;;;;4.22;1.20;;;;;;;;;;5017411;28;20133;-79
2022/09/01 05:16:11;;;;;;;5.65;1.45;;;;;;;;;;5030371;28;20040;-79
2022/09/01 05:18:39;;;;;;;4.07;1.30;;;;;;;;;;4998798;28;20057;-79
2022/09/01 05:21:10;;;;;;;2.13;0.98;;;;;;;;;;4985893;28;20509;-79
2022/09/01 05:23:39;;;;;;;3.00;1.10;;;;;;;;;;4974389;28;20477;-78
2022/09/01 05:26:15;;;;;;;3.60;1.80;;;;;;;;;;4972139;28;20038;-79
2022/09/01 05:28:44;;;;;;;3.83;1.05;;;;;;;;;;4972782;28;20038;-79
2022/09/01 05:31:11;;;;;;;4.85;1.58;;;;;;;;;;4986731;28;20057;-79
2022/09/01 05:33:44;;;;;;;2.88;1.10;;;;;;;;;;4991156;28;20067;-78
2022/09/01 05:36:12;;;;;;;3.00;0.90;;;;;;;;;;5003217;28;20435;-78
2022/09/01 05:38:40;;;;;;;3.03;0.95;;;;;;;;;;4992960;28;20115;-78
2022/09/01 05:41:07;;;;;;;5.13;1.17;;;;;;;;;;4996957;28;20127;-79
2022/09/01 05:43:34;;;;;;;3.45;1.15;;;;;;;;;;4988982;28;20034;-78
2022/09/01 05:46:02;;;;;;;4.82;1.13;;;;;;;;;;5004853;28;20129;-78
2022/09/01 05:48:30;;;;;;;4.22;1.13;;;;;;;;;;5000271;28;20034;-77
2022/09/01 05:50:59;;;;;;;4.03;1.08;;;;;;;;;;4988444;28;20397;-79
2022/09/01 05:53:29;;;;;;;2.92;1.00;;;;;;;;;;5001701;28;20037;-79
2022/09/01 05:55:56;;;;;;;3.17;1.08;;;;;;;;;;5013979;28;20060;-79
2022/09/01 05:58:26;;;;;;;3.28;1.00;;;;;;;;;;5027865;28;20029;-79
2022/09/01 06:00:54;;;;;;;4.15;1.13;;;;;;;;;;5033769;28;20056;-79
2022/09/01 06:03:23;;;;;;;2.97;0.98;;;;;;;;;;5021496;28;20059;-79
2022/09/01 06:05:51;;;;;;;3.28;1.00;;;;;;;;;;5031028;28;20401;-79
2022/09/01 06:08:21;;;;;;;3.03;0.98;;;;;;;;;;5031571;28;20077;-79
2022/09/01 06:10:50;;;;;;;3.28;1.05;;;;;;;;;;5014268;28;20117;-80
2022/09/01 06:13:20;;;;;;;3.15;1.20;;;;;;;;;;5030907;28;20037;-79
2022/09/01 06:15:47;;;;;;;5.82;1.10;;;;;;;;;;5030536;28;20053;-80
2022/09/01 06:18:16;;;;;;;8.05;1.10;;;;;;;;;;5014569;28;20125;-80
2022/09/01 06:20:44;;;;;;;3.13;1.00;;;;;;;;;;5029957;28;20060;-79
2022/09/01 06:23:14;;;;;;;2.85;0.98;;;;;;;;;;5032811;28;20484;-80
2022/09/01 06:25:42;;;;;;;2.63;0.80;;;;;;;;;;5014254;28;20030;-81
2022/09/01 06:28:10;;;;;;;2.50;1.02;;;;;;;;;;5024979;28;20497;-79
2022/09/01 06:30:37;;;;;;;4.93;1.10;;;;;;;;;;5016103;28;20044;-79
2022/09/01 06:33:06;;;;;;;5.82;1.35;;;;;;;;;;5039370;28;20038;-79
2022/09/01 06:35:35;;;;;;;3.30;0.90;;;;;;;;;;5041363;28;20045;-80
2022/09/01 06:38:01;;;;;;;3.38;0.90;;;;;;;;;;5055003;28;20038;-79
2022/09/01 06:40:27;;;;;;;8.35;1.38;;;;;;;;;;5022881;28;20033;-79
2022/09/01 06:42:54;;;;;;;6.72;1.30;;;;;;;;;;5031284;28;20377;-80
2022/09/01 06:45:21;;;;;;;4.43;1.00;;;;;;;;;;5034571;28;20064;-79
2022/09/01 06:47:49;;;;;;;5.15;1.10;;;;;;;;;;5037482;28;20500;-80
2022/09/01 06:50:18;;;;;;;2.80;0.70;;;;;;;;;;5014029;28;20040;-80
2022/09/01 06:52:44;;;;;;;2.92;0.70;;;;;;;;;;5034295;28;20151;-79
2022/09/01 06:55:11;;;;;;;2.50;0.88;;;;;;;;;;5022349;28;20041;-81
2022/09/01 06:57:38;;;;;;;3.65;1.05;;;;;;;;;;5047917;28;20049;-79
2022/09/01 07:00:16;;;;;;;3.05;0.80;;;;;;;;;;5033126;28;20159;-80
2022/09/01 07:02:44;;;;;;;3.08;0.80;;;;;;;;;;5045761;28;20527;-79
2022/09/01 07:05:10;;;;;;;3.87;0.60;;;;;;;;;;5025815;28;20090;-79
2022/09/01 07:07:36;;;;;;;3.05;0.65;;;;;;;;;;4999234;28;20037;-79
2022/09/01 07:10:03;;;;;;;1.83;0.57;;;;;;;;;;5034398;28;20510;-78
2022/09/01 07:12:29;;;;;;;2.35;0.65;;;;;;;;;;5014442;28;20033;-79
2022/09/01 07:14:56;;;;;;;3.15;0.73;;;;;;;;;;5019691;28;20045;-78
2022/09/01 07:17:25;;;;;;;2.72;0.80;;;;;;;;;;5032683;28;20124;-79
2022/09/01 07:19:52;;;;;;;6.15;0.70;;;;;;;;;;5024129;28;20037;-78
2022/09/01 07:22:18;;;;;;;2.38;0.70;;;;;;;;;;5018108;28;20033;-82
2022/09/01 07:24:44;;;;;;;2.53;0.55;;;;;;;;;;5019544;28;20045;-80
2022/09/01 07:27:11;;;;;;;2.53;0.50;;;;;;;;;;5031677;28;20037;-80
2022/09/01 07:29:38;;;;;;;2.10;0.57;;;;;;;;;;5038609;28;20080;-80
2022/09/01 07:32:06;;;;;;;3.90;0.70;;;;;;;;;;5022066;28;20042;-80
2022/09/01 07:34:33;;;;;;;3.88;0.80;;;;;;;;;;5037586;28;20029;-79
2022/09/01 07:36:59;;;;;;;2.70;0.80;;;;;;;;;;5013050;28;20543;-80
2022/09/01 07:39:24;;;;;;;3.20;0.80;;;;;;;;;;5030375;28;20041;-80
2022/09/01 07:41:57;;;;;;;2.47;0.80;;;;;;;;;;5028313;28;20056;-79
2022/09/01 07:44:23;;;;;;;2.45;0.63;;;;;;;;;;5035504;28;20365;-80
2022/09/01 07:46:50;;;;;;;3.83;0.85;;;;;;;;;;5003330;28;20128;-81
2022/09/01 07:49:16;;;;;;;2.53;0.55;;;;;;;;;;5013654;28;20029;-80
2022/09/01 07:51:48;;;;;;;2.22;0.50;;;;;;;;;;5019973;28;20497;-80
2022/09/01 07:54:14;;;;;;;2.67;0.70;;;;;;;;;;5032293;28;20045;-78
2022/09/01 07:56:40;;;;;;;4.57;0.85;;;;;;;;;;5012386;28;20331;-79
2022/09/01 07:59:06;;;;;;;1.55;0.50;;;;;;;;;;5001756;28;20045;-78
2022/09/01 08:01:32;;;;;;;3.13;0.65;;;;;;;;;;5035079;28;20091;-78
2022/09/01 08:04:00;;;;;;;1.77;0.55;;;;;;;;;;5022627;28;20478;-79
2022/09/01 08:06:27;;;;;;;2.25;0.60;;;;;;;;;;5046783;28;20125;-81
2022/09/01 08:08:54;;;;;;;1.73;0.57;;;;;;;;;;5053915;28;20366;-80
2022/09/01 08:11:25;;;;;;;1.95;0.52;;;;;;;;;;5022068;28;20118;-79
2022/09/01 08:13:52;;;;;;;4.13;0.75;;;;;;;;;;5021198;28;20033;-81
2022/09/01 08:16:18;;;;;;;3.42;0.60;;;;;;;;;;5027014;28;20389;-80
2022/09/01 08:18:44;;;;;;;1.85;0.50;;;;;;;;;;5016219;28;20506;-81
2022/09/01 08:21:14;;;;;;;1.42;0.40;;;;;;;;;;5031342;28;20041;-80
2022/09/01 08:23:40;;;;;;;3.10;0.60;;;;;;;;;;5018065;28;20060;-80
2022/09/01 08:26:11;;;;;;;1.48;0.50;;;;;;;;;;5032009;28;20485;-80
2022/09/01 08:28:39;;;;;;;2.25;0.40;;;;;;;;;;5034530;28;20032;-82
2022/09/01 08:31:09;;;;;;;1.55;0.47;;;;;;;;;;5033614;28;20109;-81
2022/09/01 08:33:41;;;;;;;2.55;0.60;;;;;;;;;;5005437;28;20065;-82
2022/09/01 08:36:11;;;;;;;2.10;0.45;;;;;;;;;;5024074;28;20094;-81
2022/09/01 08:38:38;;;;;;;1.80;0.40;;;;;;;;;;5026605;28;20065;-81
2022/09/01 08:41:05;;;;;;;2.13;0.50;;;;;;;;;;5034520;28;20067;-81
2022/09/01 08:43:49;;;;;;;2.17;0.60;;;;;;;;;;5026854;28;20029;-81
2022/09/01 08:46:47;;;;;;;2.60;0.40;;;;;;;;;;5003730;28;20045;-83
2022/09/01 08:49:19;;;;;;;2.97;0.57;;;;;;;;;;4903254;28;20040;-83
2022/09/01 08:51:47;;;;;;;1.35;0.40;;;;;;;;;;4929236;28;20074;-80
2022/09/01 08:54:25;;;;;;;0.82;0.30;;;;;;;;;;4955263;28;20505;-82
2022/09/01 08:56:59;;;;;;;2.00;0.43;;;;;;;;;;4973993;28;20395;-82
2022/09/01 08:59:27;;;;;;;2.30;0.60;;;;;;;;;;4970327;28;20372;-82
2022/09/01 09:02:28;;;;;;;2.38;0.50;;;;;;;;;;4966535;28;20411;-82
2022/09/01 09:05:02;;;;;;;2.10;0.40;;;;;;;;;;4945330;28;20042;-82
2022/09/01 09:07:49;;;;;;;1.15;0.28;;;;;;;;;;4976337;28;20034;-82
2022/09/01 09:10:48;;;;;;;2.30;0.88;;;;;;;;;;4961217;28;20423;-85
2022/09/01 09:13:24;;;;;;;1.55;0.50;;;;;;;;;;4993586;28;20057;-80
2022/09/01 09:16:02;;;;;;;2.08;0.40;;;;;;;;;;5016990;28;20044;-80
2022/09/01 09:19:06;;;;;;;1.80;0.40;;;;;;;;;;5034939;28;20037;-83
2022/09/01 09:21:54;;;;;;;2.88;0.50;;;;;;;;;;5023003;28;20113;-81
2022/09/01 09:24:46;;;;;;;1.23;0.35;;;;;;;;;;5004210;28;20077;-82
2022/09/01 09:27:31;;;;;;;1.65;0.32;;;;;;;;;;5031952;28;20488;-80
2022/09/01 09:30:22;;;;;;;1.50;0.40;;;;;;;;;;5027573;28;20041;-81
2022/09/01 09:33:05;;;;;;;2.08;0.40;;;;;;;;;;5029393;28;20135;-82
2022/09/01 09:35:45;;;;;;;2.25;0.52;;;;;;;;;;4987069;28;20163;-81
2022/09/01 09:38:18;;;;;;;0.90;0.38;;;;;;;;;;5033578;28;20115;-81
2022/09/01 09:41:02;;;;;;;2.05;0.30;;;;;;;;;;5017414;28;20370;-81
2022/09/01 09:43:30;;;;;;;1.63;0.30;;;;;;;;;;5010464;28;20033;-82
2022/09/01 09:46:33;;;;;;;1.00;0.28;;;;;;;;;;5011926;28;20564;-82
2022/09/01 09:49:24;;;;;;;1.00;0.40;;;;;;;;;;5029061;28;20044;-81
2022/09/01 09:52:15;;;;;;;2.00;0.40;;;;;;;;;;5003950;28;20522;-81
2022/09/01 09:55:02;;;;;;;1.85;0.47;;;;;;;;;;5039002;28;20045;-81
2022/09/01 09:57:29;;;;;;;2.88;0.50;;;;;;;;;;5014403;28;20033;-81
2022/09/01 09:59:57;;;;;;;;;;;;;;;;;;5008813;28;20044;-81
2022/09/01 10:02:45;;;;;;;1.10;0.30;;;;;;;;;;5027246;28;19968;-80
2022/09/01 10:05:39;;;;;;;1.45;0.35;;;;;;;;;;5019770;28;20041;-80
2022/09/01 10:08:11;;;;;;;2.88;0.40;;;;;;;;;;5027622;28;20048;-81
2022/09/01 10:10:48;;;;;;;2.47;0.52;;;;;;;;;;5008336;28;20060;-81
2022/09/01 10:13:22;;;;;;;1.30;0.40;;;;;;;;;;5027712;28;20207;-81
2022/09/01 10:15:52;;;;;;;1.83;0.40;;;;;;;;;;5031495;28;20033;-81
2022/09/01 10:18:30;;;;;;;1.48;0.40;;;;;;;;;;5013818;28;20119;-82
2022/09/01 10:20:56;;;;;;;;;;;;;;;;;;5022743;28;20037;-80
2022/09/01 10:23:23;;;;;;;1.45;0.38;;;;;;;;;;5032662;28;19940;-81
2022/09/01 10:25:49;;;;;;;;;;;;;;;;;;5015613;28;20045;-81
2022/09/01 10:28:18;;;;;;;1.42;0.40;;;;;;;;;;5033300;28;19921;-80
2022/09/01 10:30:44;;;;;;;1.02;0.30;;;;;;;;;;5027687;28;20562;-80
2022/09/01 10:33:12;;;;;;;1.75;0.60;;;;;;;;;;5011957;28;20123;-81
2022/09/01 10:35:46;;;;;;;1.88;0.40;;;;;;;;;;5025099;28;20036;-81
2022/09/01 10:38:21;;;;;;;2.17;0.30;;;;;;;;;;5035489;28;20033;-80
2022/09/01 10:40:49;;;;;;;2.80;0.50;;;;;;;;;;5030365;28;20038;-80
2022/09/01 10:43:40;;;;;;;1.45;0.30;;;;;;;;;;5016760;28;20040;-81
2022/09/01 10:46:20;;;;;;;2.03;0.20;;;;;;;;;;5021222;28;20504;-81
2022/09/01 10:48:50;;;;;;;3.17;0.38;;;;;;;;;;5045148;28;20080;-79
2022/09/01 10:51:15;;;;;;;3.72;0.40;;;;;;;;;;5030397;28;20043;-79
2022/09/01 10:53:41;;;;;;;1.25;0.38;;;;;;;;;;5027453;28;20045;-78
2022/09/01 10:56:39;;;;;;;1.10;0.30;;;;;;;;;;5030332;28;20045;-78
2022/09/01 10:59:25;;;;;;;2.70;0.20;;;;;;;;;;5045899;28;20322;-79
2022/09/01 11:02:02;;;;;;;1.43;0.30;;;;;;;;;;5042764;28;20067;-78
2022/09/01 11:04:31;;;;;;;3.20;0.95;;;;;;;;;;5029844;28;20508;-79
2022/09/01 11:07:01;;;;;;;1.05;0.30;;;;;;;;;;5019210;28;20068;-78
2022/09/01 11:09:38;;;;;;;3.03;0.40;;;;;;;;;;5011879;28;20127;-79
2022/09/01 11:12:45;;;;;;;1.48;0.30;;;;;;;;;;5026834;28;20033;-79
2022/09/01 11:15:13;;;;;;;1.85;0.30;;;;;;;;;;5013955;28;20030;-78
2022/09/01 11:17:55;;;;;;;1.48;0.30;;;;;;;;;;5036785;28;20415;-79
2022/09/01 11:20:24;;;;;;;2.28;0.30;;;;;;;;;;5028914;28;20037;-77
2022/09/01 11:22:56;;;;;;;3.35;0.90;;;;;;;;;;5033545;28;20485;-78
2022/09/01 11:25:42;;;;;;;1.33;0.28;;;;;;;;;;5029761;28;20431;-78
2022/09/01 11:28:13;;;;;;;0.90;0.20;;;;;;;;;;5015897;28;20037;-78
2022/09/01 11:30:51;;;;;;;0.90;0.30;;;;;;;;;;5036656;28;20053;-78
2022/09/01 11:33:38;;;;;;;0.60;0.10;;;;;;;;;;5031244;28;20122;-78
2022/09/01 11:36:29;;;;;;;1.75;0.20;;;;;;;;;;5031849;28;20497;-78
2022/09/01 11:39:08;;;;;;;2.80;0.40;;;;;;;;;;5031285;28;20049;-78
2022/09/01 11:41:43;;;;;;;2.03;0.47;;;;;;;;;;5020735;28;20029;-78
2022/09/01 11:44:12;;;;;;;1.65;0.40;;;;;;;;;;5033355;28;20401;-78
2022/09/01 11:46:41;;;;;;;2.08;0.60;;;;;;;;;;5016058;28;20041;-78
2022/09/01 11:49:24;;;;;;;2.05;0.50;;;;;;;;;;5033382;28;20337;-78
2022/09/01 11:51:49;;;;;;;1.25;0.40;;;;;;;;;;5049448;28;20037;-78
2022/09/01 11:54:15;;;;;;;0.50;0.20;;;;;;;;;;5032157;28;20045;-78
2022/09/01 11:56:40;;;;;;;0.82;0.30;;;;;;;;;;5025633;28;20577;-81
2022/09/01 11:59:06;;;;;;;0.55;0.22;;;;;;;;;;5025174;28;20029;-81
2022/09/01 12:01:36;;;;;;;3.17;0.57;;;;;;;;;;5049401;28;20435;-80
2022/09/01 12:04:26;;;;;;;1.33;0.40;;;;;;;;;;5035389;28;20103;-81
2022/09/01 12:06:57;;;;;;;1.50;0.40;;;;;;;;;;5030419;28;20056;-79
2022/09/01 12:09:39;;;;;;;3.05;0.40;;;;;;;;;;5030996;28;20045;-82
2022/09/01 12:12:06;;;;;;;1.27;0.32;;;;;;;;;;5016224;28;20059;-81
2022/09/01 12:14:32;;;;;;;1.15;0.40;;;;;;;;;;5016045;28;20041;-80
2022/09/01 12:17:03;;;;;;;6.65;2.03;;;;;;;;;;5025846;28;20033;-80
2022/09/01 12:19:31;;;;;;;2.03;0.50;;;;;;;;;;5007584;28;20582;-81
2022/09/01 12:21:59;;;;;;;2.92;0.70;;;;;;;;;;5034187;28;20475;-81
2022/09/01 12:24:26;;;;;;;1.55;0.38;;;;;;;;;;5019302;28;20030;-80
2022/09/01 12:26:53;;;;;;;2.92;0.68;;;;;;;;;;5017952;28;20046;-82
2022/09/01 12:29:21;;;;;;;;;;;;;;;;;;5013465;28;20033;-81
2022/09/01 12:31:49;;;;;;;2.97;0.77;;;;;;;;;;5034658;28;19971;-81
2022/09/01 12:34:26;;;;;;;2.90;0.60;;;;;;;;;;5019589;28;20037;-79
2022/09/01 12:37:04;;;;;;;1.70;0.40;;;;;;;;;;5016558;28;20034;-79
2022/09/01 12:39:41;;;;;;;2.88;0.50;;;;;;;;;;5031551;28;20038;-79
2022/09/01 12:42:27;;;;;;;2.85;0.50;;;;;;;;;;5031784;28;20040;-77
2022/09/01 12:44:56;;;;;;;3.50;0.50;;;;;;;;;;5028506;28;20398;-78
2022/09/01 12:47:34;;;;;;;2.53;0.40;;;;;;;;;;5013396;28;20033;-79
2022/09/01 12:50:11;;;;;;;0.90;0.30;;;;;;;;;;5036049;28;20037;-78
2022/09/01 12:52:46;;;;;;;2.77;0.53;;;;;;;;;;5038573;28;20033;-78
2022/09/01 12:55:17;;;;;;;2.40;0.50;;;;;;;;;;5028835;28;20293;-80
2022/09/01 12:57:50;;;;;;;1.05;0.35;;;;;;;;;;5026799;28;20069;-78
2022/09/01 13:00:19;;;;;;;5.38;0.70;;;;;;;;;;5020429;28;20080;-80
2022/09/01 13:02:54;;;;;;;1.48;0.30;;;;;;;;;;5019685;28;20099;-79
2022/09/01 13:05:25;;;;;;;1.48;0.40;;;;;;;;;;5025356;28;20072;-79
2022/09/01 13:07:54;;;;;;;1.40;0.40;;;;;;;;;;5029049;28;20399;-80
2022/09/01 13:10:22;;;;;;;2.55;0.50;;;;;;;;;;5030563;28;20038;-78
2022/09/01 13:12:47;;;;;;;1.05;0.30;;;;;;;;;;5014946;28;20129;-80
2022/09/01 13:15:21;;;;;;;1.70;0.40;;;;;;;;;;5010437;28;20460;-81
2022/09/01 13:17:46;;;;;;;1.55;0.45;;;;;;;;;;5019161;28;20119;-80
2022/09/01 13:20:12;;;;;;;2.55;0.38;;;;;;;;;;5011998;28;20535;-79
2022/09/01 13:22:40;;;;;;;2.97;0.40;;;;;;;;;;5027295;28;20044;-79
2022/09/01 13:25:06;;;;;;;4.32;0.47;;;;;;;;;;5034259;28;20079;-79
2022/09/01 13:27:31;;;;;;;2.17;0.32;;;;;;;;;;5033383;28;20045;-78
2022/09/01 13:29:56;;;;;;;1.40;0.30;;;;;;;;;;5013970;28;20040;-78
2022/09/01 13:32:22;;;;;;;2.28;0.47;;;;;;;;;;5012650;28;20041;-80
2022/09/01 13:34:52;;;;;;;2.20;0.57;;;;;;;;;;5028364;28;20052;-81
2022/09/01 13:37:18;;;;;;;0.70;0.20;;;;;;;;;;5014403;28;20095;-79
2022/09/01 13:39:45;;;;;;;0.73;0.30;;;;;;;;;;5018148;28;20060;-79
2022/09/01 13:42:12;;;;;;;1.88;0.38;;;;;;;;;;5026403;28;20041;-78
2022/09/01 13:44:38;;;;;;;1.83;0.30;;;;;;;;;;5011444;28;20389;-79
2022/09/01 13:47:06;;;;;;;2.20;0.40;;;;;;;;;;5011992;28;20041;-78
2022/09/01 13:49:31;;;;;;;2.58;0.38;;;;;;;;;;5017914;28;20036;-78
2022/09/01 13:51:57;;;;;;;1.05;0.32;;;;;;;;;;5012761;28;20033;-77
2022/09/01 13:54:22;;;;;;;1.20;0.50;;;;;;;;;;5026966;28;20045;-77
2022/09/01 13:56:47;;;;;;;1.95;0.30;;;;;;;;;;5047034;28;20044;-79
2022/09/01 13:59:13;;;;;;;1.88;0.32;;;;;;;;;;5043841;28;20038;-79
2022/09/01 14:01:41;;;;;;;2.45;0.40;;;;;;;;;;5025862;28;20061;-79
2022/09/01 14:04:07;;;;;;;4.03;0.77;;;;;;;;;;5028575;28;20030;-78
2022/09/01 14:06:38;;;;;;;2.10;0.60;;;;;;;;;;5027732;28;20531;-80
2022/09/01 14:09:04;;;;;;;2.17;0.40;;;;;;;;;;5031596;28;20025;-80
2022/09/01 14:11:30;;;;;;;1.95;0.35;;;;;;;;;;5025170;28;20045;-78
2022/09/01 14:13:56;;;;;;;2.28;0.60;;;;;;;;;;5031715;28;20104;-80
2022/09/01 14:16:21;;;;;;;0.85;0.30;;;;;;;;;;5013308;28;20061;-78
2022/09/01 14:18:47;;;;;;;2.78;0.50;;;;;;;;;;5012065;28;20048;-78
2022/09/01 14:21:14;;;;;;;4.88;0.55;;;;;;;;;;5026868;28;20030;-78
2022/09/01 14:23:40;;;;;;;1.88;0.45;;;;;;;;;;5018930;28;20038;-78
2022/09/01 14:26:11;;;;;;;1.40;0.30;;;;;;;;;;5028871;28;20493;-78
2022/09/01 14:28:37;;;;;;;4.10;0.47;;;;;;;;;;5029514;28;20037;-78
2022/09/01 14:31:08;;;;;;;2.00;0.30;;;;;;;;;;5013960;28;20060;-77
2022/09/01 14:33:34;;;;;;;1.65;0.40;;;;;;;;;;5014765;28;20037;-79
2022/09/01 14:35:59;;;;;;;1.45;0.38;;;;;;;;;;5036631;28;20040;-77
2022/09/01 14:38:25;;;;;;;1.02;0.30;;;;;;;;;;5026913;28;20037;-78
2022/09/01 14:40:51;;;;;;;0.98;0.30;;;;;;;;;;5011863;28;20575;-78
2022/09/01 14:43:17;;;;;;;2.60;0.30;;;;;;;;;;5029385;28;20029;-79
2022/09/01 14:45:46;;;;;;;1.25;0.40;;;;;;;;;;5023749;28;20036;-78
2022/09/01 14:48:16;;;;;;;0.82;0.28;;;;;;;;;;5031297;28;20040;-78
2022/09/01 14:50:43;;;;;;;2.10;0.40;;;;;;;;;;5030347;28;20041;-78
2022/09/01 14:53:09;;;;;;;;;;;;;;;;;;5022783;28;20427;-78
2022/09/01 14:55:34;;;;;;;3.17;0.50;;;;;;;;;;5032924;28;19925;-78
2022/09/01 14:58:00;;;;;;;1.90;0.45;;;;;;;;;;5033298;28;20092;-78
2022/09/01 15:00:26;;;;;;;1.10;0.40;;;;;;;;;;5017741;28;20048;-78
2022/09/01 15:02:53;;;;;;;1.63;0.40;;;;;;;;;;5022266;28;20435;-79
2022/09/01 15:05:19;;;;;;;1.48;0.40;;;;;;;;;;5033339;28;20033;-79
2022/09/01 15:07:45;;;;;;;2.10;0.40;;;;;;;;;;5018490;28;20064;-78